sensor_id;sensor_type;location;lat;lon;timestamp;P1;durP1;ratioP1;P2;durP2;ratioP2
18834;SDS011;9546;59.262;18.036;2022-09-03T00:01:22;4.72;;;3.08;;
18834;SDS011;9546;59.262;18.036;2022-09-03T00:03:51;4.60;;;2.60;;
18834;SDS011;9546;59.262;18.036;2022-09-03T00:06:22;4.07;;;3.20;;
18834;SDS011;9546;59.262;18.036;2022-09-03T00:08:52;4.75;;;2.60;;
18834;SDS011;9546;59.262;18.036;2022-09-03T00:11:25;3.08;;;2.50;;
18834;SDS011;9546;59.262;18.036;2022-09-03T00:13:56;3.15;;;2.33;;
18834;SDS011;9546;59.262;18.036;2022-09-03T00:16:25;6.97;;;3.03;;
18834;SDS011;9546;59.262;18.036;2022-09-03T00:18:55;3.88;;;2.50;;
18834;SDS011;9546;59.262;18.036;2022-09-03T00:21:31;3.67;;;2.70;;
18834;SDS011;9546;59.262;18.036;2022-09-03T00:23:59;5.85;;;2.90;;
18834;SDS011;9546;59.262;18.036;2022-09-03T00:26:28;3.25;;;2.53;;
18834;SDS011;9546;59.262;18.036;2022-09-03T00:29:00;3.67;;;2.30;;
18834;SDS011;9546;59.262;18.036;2022-09-03T00:31:29;6.18;;;2.40;;
18834;SDS011;9546;59.262;18.036;2022-09-03T00:33:59;2.63;;;1.80;;
18834;SDS011;9546;59.262;18.036;2022-09-03T00:36:30;4.82;;;2.60;;
18834;SDS011;9546;59.262;18.036;2022-09-03T00:38:58;4.03;;;2.85;;
18834;SDS011;9546;59.262;18.036;2022-09-03T00:41:27;6.78;;;2.45;;
18834;SDS011;9546;59.262;18.036;2022-09-03T00:44:09;3.88;;;2.35;;
18834;SDS011;9546;59.262;18.036;2022-09-03T00:46:40;2.28;;;1.90;;
18834;SDS011;9546;59.262;18.036;2022-09-03T00:49:16;4.38;;;2.40;;
18834;SDS011;9546;59.262;18.036;2022-09-03T00:51:48;4.10;;;2.15;;
18834;SDS011;9546;59.262;18.036;2022-09-03T00:54:17;2.60;;;2.10;;
18834;SDS011;9546;59.262;18.036;2022-09-03T00:56:46;3.22;;;2.20;;
18834;SDS011;9546;59.262;18.036;2022-09-03T00:59:20;3.00;;;2.30;;
18834;SDS011;9546;59.262;18.036;2022-09-03T01:01:54;5.63;;;2.55;;
18834;SDS011;9546;59.262;18.036;2022-09-03T01:04:32;6.60;;;2.38;;
18834;SDS011;9546;59.262;18.036;2022-09-03T01:07:02;3.38;;;2.17;;
18834;SDS011;9546;59.262;18.036;2022-09-03T01:28:18;2.92;;;2.10;;
18834;SDS011;9546;59.262;18.036;2022-09-03T01:30:48;4.53;;;1.60;;
18834;SDS011;9546;59.262;18.036;2022-09-03T01:33:18;3.15;;;1.88;;
18834;SDS011;9546;59.262;18.036;2022-09-03T01:35:47;2.25;;;1.90;;
18834;SDS011;9546;59.262;18.036;2022-09-03T01:38:17;3.63;;;2.47;;
18834;SDS011;9546;59.262;18.036;2022-09-03T01:40:50;4.07;;;2.25;;
18834;SDS011;9546;59.262;18.036;2022-09-03T01:43:26;2.25;;;1.80;;
18834;SDS011;9546;59.262;18.036;2022-09-03T01:46:00;4.47;;;2.15;;
18834;SDS011;9546;59.262;18.036;2022-09-03T01:48:34;3.88;;;2.15;;
18834;SDS011;9546;59.262;18.036;2022-09-03T01:51:05;2.75;;;1.80;;
18834;SDS011;9546;59.262;18.036;2022-09-03T01:53:39;2.28;;;1.98;;
18834;SDS011;9546;59.262;18.036;2022-09-03T01:56:15;4.07;;;2.10;;
18834;SDS011;9546;59.262;18.036;2022-09-03T01:58:48;2.10;;;1.90;;
18834;SDS011;9546;59.262;18.036;2022-09-03T02:01:22;3.83;;;2.15;;
18834;SDS011;9546;59.262;18.036;2022-09-03T02:03:51;2.08;;;1.70;;
18834;SDS011;9546;59.262;18.036;2022-09-03T02:06:24;2.60;;;2.00;;
18834;SDS011;9546;59.262;18.036;2022-09-03T02:08:51;2.85;;;1.95;;
18834;SDS011;9546;59.262;18.036;2022-09-03T02:11:17;2.80;;;2.17;;
18834;SDS011;9546;59.262;18.036;2022-09-03T02:13:44;3.67;;;2.30;;
18834;SDS011;9546;59.262;18.036;2022-09-03T02:16:14;2.33;;;1.90;;
18834;SDS011;9546;59.262;18.036;2022-09-03T02:18:43;2.85;;;1.80;;
18834;SDS011;9546;59.262;18.036;2022-09-03T02:21:12;3.35;;;2.13;;
18834;SDS011;9546;59.262;18.036;2022-09-03T02:23:39;2.45;;;1.80;;
18834;SDS011;9546;59.262;18.036;2022-09-03T02:26:07;3.05;;;1.80;;
18834;SDS011;9546;59.262;18.036;2022-09-03T02:28:35;3.70;;;1.70;;
18834;SDS011;9546;59.262;18.036;2022-09-03T02:31:02;2.85;;;2.00;;
18834;SDS011;9546;59.262;18.036;2022-09-03T02:33:33;2.85;;;2.00;;
18834;SDS011;9546;59.262;18.036;2022-09-03T02:36:00;3.10;;;2.13;;
18834;SDS011;9546;59.262;18.036;2022-09-03T02:38:29;3.42;;;1.58;;
18834;SDS011;9546;59.262;18.036;2022-09-03T02:40:55;1.65;;;1.52;;
18834;SDS011;9546;59.262;18.036;2022-09-03T02:43:23;2.35;;;1.45;;
18834;SDS011;9546;59.262;18.036;2022-09-03T02:45:54;3.55;;;2.13;;
18834;SDS011;9546;59.262;18.036;2022-09-03T02:48:22;3.63;;;2.13;;
18834;SDS011;9546;59.262;18.036;2022-09-03T02:50:50;2.58;;;1.73;;
18834;SDS011;9546;59.262;18.036;2022-09-03T02:53:17;3.30;;;1.85;;
18834;SDS011;9546;59.262;18.036;2022-09-03T02:55:44;3.42;;;1.98;;
18834;SDS011;9546;59.262;18.036;2022-09-03T02:58:11;2.53;;;1.92;;
18834;SDS011;9546;59.262;18.036;2022-09-03T03:00:38;3.67;;;1.80;;
18834;SDS011;9546;59.262;18.036;2022-09-03T03:03:05;1.77;;;1.27;;
18834;SDS011;9546;59.262;18.036;2022-09-03T03:05:34;2.85;;;1.50;;
18834;SDS011;9546;59.262;18.036;2022-09-03T03:28:04;2.28;;;1.40;;
18834;SDS011;9546;59.262;18.036;2022-09-03T03:30:31;2.85;;;1.65;;
18834;SDS011;9546;59.262;18.036;2022-09-03T03:32:58;1.92;;;1.70;;
18834;SDS011;9546;59.262;18.036;2022-09-03T03:35:25;3.70;;;1.90;;
18834;SDS011;9546;59.262;18.036;2022-09-03T03:37:52;2.65;;;1.73;;
18834;SDS011;9546;59.262;18.036;2022-09-03T03:40:18;2.00;;;1.80;;
18834;SDS011;9546;59.262;18.036;2022-09-03T03:42:45;2.70;;;1.73;;
18834;SDS011;9546;59.262;18.036;2022-09-03T03:45:14;3.75;;;1.90;;
18834;SDS011;9546;59.262;18.036;2022-09-03T03:47:41;4.57;;;2.13;;
18834;SDS011;9546;59.262;18.036;2022-09-03T03:50:07;2.42;;;1.60;;
18834;SDS011;9546;59.262;18.036;2022-09-03T03:52:34;2.08;;;1.73;;
18834;SDS011;9546;59.262;18.036;2022-09-03T03:55:01;1.55;;;1.23;;
18834;SDS011;9546;59.262;18.036;2022-09-03T03:57:28;2.17;;;1.40;;
18834;SDS011;9546;59.262;18.036;2022-09-03T03:59:55;3.88;;;1.70;;
18834;SDS011;9546;59.262;18.036;2022-09-03T04:02:23;7.25;;;1.95;;
18834;SDS011;9546;59.262;18.036;2022-09-03T04:04:50;4.20;;;1.65;;
18834;SDS011;9546;59.262;18.036;2022-09-03T04:07:16;1.95;;;1.50;;
18834;SDS011;9546;59.262;18.036;2022-09-03T04:09:43;2.53;;;1.35;;
18834;SDS011;9546;59.262;18.036;2022-09-03T04:12:11;4.65;;;1.98;;
18834;SDS011;9546;59.262;18.036;2022-09-03T04:14:37;1.60;;;1.40;;
18834;SDS011;9546;59.262;18.036;2022-09-03T04:17:04;2.00;;;1.52;;
18834;SDS011;9546;59.262;18.036;2022-09-03T04:19:32;3.22;;;1.50;;
18834;SDS011;9546;59.262;18.036;2022-09-03T04:21:59;2.10;;;1.70;;
18834;SDS011;9546;59.262;18.036;2022-09-03T04:24:27;2.20;;;1.63;;
18834;SDS011;9546;59.262;18.036;2022-09-03T04:26:53;2.38;;;1.55;;
18834;SDS011;9546;59.262;18.036;2022-09-03T04:29:20;2.28;;;1.40;;
18834;SDS011;9546;59.262;18.036;2022-09-03T04:31:47;1.63;;;1.30;;
18834;SDS011;9546;59.262;18.036;2022-09-03T04:34:27;1.45;;;1.20;;
18834;SDS011;9546;59.262;18.036;2022-09-03T04:36:55;3.92;;;1.40;;
18834;SDS011;9546;59.262;18.036;2022-09-03T04:39:23;2.88;;;2.10;;
18834;SDS011;9546;59.262;18.036;2022-09-03T04:41:50;2.05;;;1.65;;
18834;SDS011;9546;59.262;18.036;2022-09-03T04:44:17;3.03;;;1.80;;
18834;SDS011;9546;59.262;18.036;2022-09-03T04:46:44;2.25;;;2.05;;
18834;SDS011;9546;59.262;18.036;2022-09-03T04:49:12;3.00;;;1.65;;
18834;SDS011;9546;59.262;18.036;2022-09-03T04:51:39;4.00;;;2.10;;
18834;SDS011;9546;59.262;18.036;2022-09-03T04:54:07;3.70;;;1.90;;
18834;SDS011;9546;59.262;18.036;2022-09-03T04:56:34;3.80;;;2.60;;
18834;SDS011;9546;59.262;18.036;2022-09-03T04:59:02;4.85;;;2.33;;
18834;SDS011;9546;59.262;18.036;2022-09-03T05:01:29;4.32;;;3.15;;
18834;SDS011;9546;59.262;18.036;2022-09-03T05:03:56;6.75;;;3.28;;
18834;SDS011;9546;59.262;18.036;2022-09-03T05:06:24;4.13;;;2.30;;
18834;SDS011;9546;59.262;18.036;2022-09-03T05:28:51;2.17;;;1.30;;
18834;SDS011;9546;59.262;18.036;2022-09-03T05:31:21;1.92;;;1.60;;
18834;SDS011;9546;59.262;18.036;2022-09-03T05:33:50;4.07;;;1.45;;
18834;SDS011;9546;59.262;18.036;2022-09-03T05:36:18;2.67;;;1.25;;
18834;SDS011;9546;59.262;18.036;2022-09-03T05:38:45;1.25;;;1.05;;
18834;SDS011;9546;59.262;18.036;2022-09-03T05:41:13;2.20;;;1.30;;
18834;SDS011;9546;59.262;18.036;2022-09-03T05:43:52;3.88;;;1.10;;
18834;SDS011;9546;59.262;18.036;2022-09-03T05:46:21;1.63;;;1.10;;
18834;SDS011;9546;59.262;18.036;2022-09-03T05:48:55;1.70;;;1.20;;
18834;SDS011;9546;59.262;18.036;2022-09-03T05:51:22;1.45;;;1.17;;
18834;SDS011;9546;59.262;18.036;2022-09-03T05:53:49;2.67;;;1.45;;
18834;SDS011;9546;59.262;18.036;2022-09-03T05:56:18;1.17;;;1.02;;
18834;SDS011;9546;59.262;18.036;2022-09-03T05:58:46;4.90;;;2.50;;
18834;SDS011;9546;59.262;18.036;2022-09-03T06:01:20;5.53;;;3.85;;
18834;SDS011;9546;59.262;18.036;2022-09-03T06:03:49;8.00;;;4.70;;
18834;SDS011;9546;59.262;18.036;2022-09-03T06:06:23;5.63;;;3.08;;
18834;SDS011;9546;59.262;18.036;2022-09-03T06:08:51;4.97;;;2.92;;
18834;SDS011;9546;59.262;18.036;2022-09-03T06:11:29;2.05;;;1.70;;
18834;SDS011;9546;59.262;18.036;2022-09-03T06:13:57;3.42;;;1.10;;
18834;SDS011;9546;59.262;18.036;2022-09-03T06:16:27;1.88;;;0.80;;
18834;SDS011;9546;59.262;18.036;2022-09-03T06:18:55;0.82;;;0.82;;
18834;SDS011;9546;59.262;18.036;2022-09-03T06:21:22;1.15;;;0.90;;
18834;SDS011;9546;59.262;18.036;2022-09-03T06:23:49;3.90;;;0.80;;
18834;SDS011;9546;59.262;18.036;2022-09-03T06:26:17;2.17;;;0.85;;
18834;SDS011;9546;59.262;18.036;2022-09-03T06:28:44;3.45;;;0.80;;
18834;SDS011;9546;59.262;18.036;2022-09-03T06:31:12;0.95;;;0.70;;
18834;SDS011;9546;59.262;18.036;2022-09-03T06:33:41;4.75;;;1.08;;
18834;SDS011;9546;59.262;18.036;2022-09-03T06:36:08;0.98;;;0.70;;
18834;SDS011;9546;59.262;18.036;2022-09-03T06:38:38;1.63;;;0.90;;
18834;SDS011;9546;59.262;18.036;2022-09-03T06:41:06;2.65;;;0.82;;
18834;SDS011;9546;59.262;18.036;2022-09-03T06:43:34;0.80;;;0.80;;
18834;SDS011;9546;59.262;18.036;2022-09-03T06:46:02;1.30;;;0.80;;
18834;SDS011;9546;59.262;18.036;2022-09-03T06:48:29;1.15;;;0.73;;
18834;SDS011;9546;59.262;18.036;2022-09-03T06:51:00;1.67;;;0.88;;
18834;SDS011;9546;59.262;18.036;2022-09-03T06:53:28;1.67;;;0.93;;
18834;SDS011;9546;59.262;18.036;2022-09-03T06:55:56;1.80;;;0.90;;
18834;SDS011;9546;59.262;18.036;2022-09-03T06:58:24;2.58;;;0.80;;
18834;SDS011;9546;59.262;18.036;2022-09-03T07:00:51;1.00;;;0.90;;
18834;SDS011;9546;59.262;18.036;2022-09-03T07:03:18;1.48;;;0.70;;
18834;SDS011;9546;59.262;18.036;2022-09-03T07:05:45;1.42;;;0.93;;
18834;SDS011;9546;59.262;18.036;2022-09-03T07:28:10;2.45;;;1.50;;
18834;SDS011;9546;59.262;18.036;2022-09-03T07:30:37;0.75;;;0.60;;
18834;SDS011;9546;59.262;18.036;2022-09-03T07:33:04;1.67;;;0.80;;
18834;SDS011;9546;59.262;18.036;2022-09-03T07:35:32;1.73;;;0.55;;
18834;SDS011;9546;59.262;18.036;2022-09-03T07:38:03;1.02;;;0.70;;
18834;SDS011;9546;59.262;18.036;2022-09-03T07:40:29;2.08;;;1.30;;
18834;SDS011;9546;59.262;18.036;2022-09-03T07:42:58;2.45;;;0.77;;
18834;SDS011;9546;59.262;18.036;2022-09-03T07:45:29;0.82;;;0.82;;
18834;SDS011;9546;59.262;18.036;2022-09-03T07:47:57;1.77;;;0.90;;
18834;SDS011;9546;59.262;18.036;2022-09-03T07:50:24;1.15;;;0.60;;
18834;SDS011;9546;59.262;18.036;2022-09-03T07:52:54;1.92;;;0.70;;
18834;SDS011;9546;59.262;18.036;2022-09-03T07:55:22;1.65;;;0.52;;
18834;SDS011;9546;59.262;18.036;2022-09-03T07:57:49;1.40;;;0.63;;
18834;SDS011;9546;59.262;18.036;2022-09-03T08:00:16;0.70;;;0.50;;
18834;SDS011;9546;59.262;18.036;2022-09-03T08:02:44;0.75;;;0.50;;
18834;SDS011;9546;59.262;18.036;2022-09-03T08:05:11;0.95;;;0.50;;
18834;SDS011;9546;59.262;18.036;2022-09-03T08:07:38;0.40;;;0.40;;
18834;SDS011;9546;59.262;18.036;2022-09-03T08:10:05;1.95;;;0.50;;
18834;SDS011;9546;59.262;18.036;2022-09-03T08:12:31;1.55;;;0.50;;
18834;SDS011;9546;59.262;18.036;2022-09-03T08:14:58;3.13;;;0.70;;
18834;SDS011;9546;59.262;18.036;2022-09-03T08:17:25;0.70;;;0.40;;
18834;SDS011;9546;59.262;18.036;2022-09-03T08:19:53;0.65;;;0.50;;
18834;SDS011;9546;59.262;18.036;2022-09-03T08:22:21;0.68;;;0.60;;
18834;SDS011;9546;59.262;18.036;2022-09-03T08:24:49;3.33;;;1.00;;
18834;SDS011;9546;59.262;18.036;2022-09-03T08:27:19;1.52;;;0.60;;
18834;SDS011;9546;59.262;18.036;2022-09-03T08:29:50;1.45;;;0.40;;
18834;SDS011;9546;59.262;18.036;2022-09-03T08:32:17;0.93;;;0.50;;
18834;SDS011;9546;59.262;18.036;2022-09-03T08:34:43;0.80;;;0.50;;
18834;SDS011;9546;59.262;18.036;2022-09-03T08:37:12;1.10;;;1.00;;
18834;SDS011;9546;59.262;18.036;2022-09-03T08:39:39;2.53;;;1.20;;
18834;SDS011;9546;59.262;18.036;2022-09-03T08:42:27;3.60;;;1.00;;
18834;SDS011;9546;59.262;18.036;2022-09-03T08:44:55;1.95;;;0.95;;
18834;SDS011;9546;59.262;18.036;2022-09-03T08:47:25;2.50;;;0.80;;
18834;SDS011;9546;59.262;18.036;2022-09-03T08:49:53;0.98;;;0.60;;
18834;SDS011;9546;59.262;18.036;2022-09-03T08:52:25;1.17;;;0.90;;
18834;SDS011;9546;59.262;18.036;2022-09-03T08:54:54;0.70;;;0.60;;
18834;SDS011;9546;59.262;18.036;2022-09-03T08:57:23;2.25;;;0.63;;
18834;SDS011;9546;59.262;18.036;2022-09-03T08:59:52;2.03;;;0.55;;
18834;SDS011;9546;59.262;18.036;2022-09-03T09:02:21;0.57;;;0.40;;
18834;SDS011;9546;59.262;18.036;2022-09-03T09:04:53;0.95;;;0.60;;
18834;SDS011;9546;59.262;18.036;2022-09-03T09:07:26;0.88;;;0.60;;
18834;SDS011;9546;59.262;18.036;2022-09-03T09:28:29;1.40;;;0.70;;
18834;SDS011;9546;59.262;18.036;2022-09-03T09:30:58;0.57;;;0.50;;
18834;SDS011;9546;59.262;18.036;2022-09-03T09:33:28;1.20;;;0.57;;
18834;SDS011;9546;59.262;18.036;2022-09-03T09:35:57;1.88;;;0.60;;
18834;SDS011;9546;59.262;18.036;2022-09-03T09:38:29;0.60;;;0.40;;
18834;SDS011;9546;59.262;18.036;2022-09-03T09:41:06;0.77;;;0.50;;
18834;SDS011;9546;59.262;18.036;2022-09-03T09:43:35;0.40;;;0.40;;
18834;SDS011;9546;59.262;18.036;2022-09-03T09:46:05;0.70;;;0.57;;
18834;SDS011;9546;59.262;18.036;2022-09-03T09:48:33;0.60;;;0.50;;
18834;SDS011;9546;59.262;18.036;2022-09-03T09:51:04;0.73;;;0.50;;
18834;SDS011;9546;59.262;18.036;2022-09-03T09:53:33;1.38;;;0.70;;
18834;SDS011;9546;59.262;18.036;2022-09-03T09:56:00;2.45;;;1.85;;
18834;SDS011;9546;59.262;18.036;2022-09-03T09:58:28;2.08;;;1.00;;
18834;SDS011;9546;59.262;18.036;2022-09-03T10:00:59;0.65;;;0.47;;
18834;SDS011;9546;59.262;18.036;2022-09-03T10:03:27;0.85;;;0.50;;
18834;SDS011;9546;59.262;18.036;2022-09-03T10:06:05;0.70;;;0.43;;
18834;SDS011;9546;59.262;18.036;2022-09-03T10:08:46;1.63;;;0.63;;
18834;SDS011;9546;59.262;18.036;2022-09-03T10:11:13;2.00;;;0.60;;
18834;SDS011;9546;59.262;18.036;2022-09-03T10:13:41;0.77;;;0.60;;
18834;SDS011;9546;59.262;18.036;2022-09-03T10:16:12;1.38;;;0.57;;
18834;SDS011;9546;59.262;18.036;2022-09-03T10:18:44;0.55;;;0.47;;
18834;SDS011;9546;59.262;18.036;2022-09-03T10:21:13;1.02;;;0.70;;
18834;SDS011;9546;59.262;18.036;2022-09-03T10:23:47;0.85;;;0.50;;
18834;SDS011;9546;59.262;18.036;2022-09-03T10:26:16;0.95;;;0.80;;
18834;SDS011;9546;59.262;18.036;2022-09-03T10:28:45;0.68;;;0.60;;
18834;SDS011;9546;59.262;18.036;2022-09-03T10:33:59;0.60;;;0.40;;
18834;SDS011;9546;59.262;18.036;2022-09-03T10:36:28;0.90;;;0.57;;
18834;SDS011;9546;59.262;18.036;2022-09-03T10:38:58;3.13;;;0.60;;
18834;SDS011;9546;59.262;18.036;2022-09-03T10:41:32;0.73;;;0.40;;
18834;SDS011;9546;59.262;18.036;2022-09-03T10:44:04;1.00;;;0.70;;
18834;SDS011;9546;59.262;18.036;2022-09-03T10:46:36;2.33;;;0.50;;
18834;SDS011;9546;59.262;18.036;2022-09-03T10:49:13;1.25;;;0.60;;
18834;SDS011;9546;59.262;18.036;2022-09-03T10:51:45;1.10;;;0.80;;
18834;SDS011;9546;59.262;18.036;2022-09-03T10:57:07;2.17;;;0.60;;
18834;SDS011;9546;59.262;18.036;2022-09-03T10:59:41;2.38;;;0.50;;
18834;SDS011;9546;59.262;18.036;2022-09-03T11:02:18;1.35;;;0.47;;
18834;SDS011;9546;59.262;18.036;2022-09-03T11:04:53;1.00;;;0.40;;
18834;SDS011;9546;59.262;18.036;2022-09-03T11:07:21;0.55;;;0.50;;
18834;SDS011;9546;59.262;18.036;2022-09-03T11:28:40;1.63;;;0.45;;
18834;SDS011;9546;59.262;18.036;2022-09-03T11:31:17;0.80;;;0.45;;
18834;SDS011;9546;59.262;18.036;2022-09-03T11:33:48;1.25;;;0.68;;
18834;SDS011;9546;59.262;18.036;2022-09-03T11:36:22;1.00;;;0.50;;
18834;SDS011;9546;59.262;18.036;2022-09-03T11:38:50;2.45;;;0.50;;
18834;SDS011;9546;59.262;18.036;2022-09-03T11:41:22;1.00;;;0.60;;
18834;SDS011;9546;59.262;18.036;2022-09-03T11:43:53;2.50;;;0.68;;
18834;SDS011;9546;59.262;18.036;2022-09-03T11:46:27;2.20;;;0.60;;
18834;SDS011;9546;59.262;18.036;2022-09-03T11:48:54;0.50;;;0.50;;
18834;SDS011;9546;59.262;18.036;2022-09-03T11:51:29;0.85;;;0.70;;
18834;SDS011;9546;59.262;18.036;2022-09-03T11:53:58;0.85;;;0.80;;
18834;SDS011;9546;59.262;18.036;2022-09-03T11:56:26;0.95;;;0.50;;
18834;SDS011;9546;59.262;18.036;2022-09-03T11:59:03;2.60;;;0.80;;
18834;SDS011;9546;59.262;18.036;2022-09-03T12:01:31;0.63;;;0.60;;
18834;SDS011;9546;59.262;18.036;2022-09-03T12:03:59;0.75;;;0.50;;
18834;SDS011;9546;59.262;18.036;2022-09-03T12:06:43;0.55;;;0.52;;
18834;SDS011;9546;59.262;18.036;2022-09-03T12:09:16;0.60;;;0.60;;
18834;SDS011;9546;59.262;18.036;2022-09-03T12:11:47;1.48;;;0.60;;
18834;SDS011;9546;59.262;18.036;2022-09-03T12:14:26;0.70;;;0.50;;
18834;SDS011;9546;59.262;18.036;2022-09-03T12:17:04;1.15;;;0.50;;
18834;SDS011;9546;59.262;18.036;2022-09-03T12:19:35;1.05;;;0.70;;
18834;SDS011;9546;59.262;18.036;2022-09-03T12:22:03;0.60;;;0.60;;
18834;SDS011;9546;59.262;18.036;2022-09-03T12:24:30;0.68;;;0.50;;
18834;SDS011;9546;59.262;18.036;2022-09-03T12:27:01;0.73;;;0.50;;
18834;SDS011;9546;59.262;18.036;2022-09-03T12:29:30;0.50;;;0.47;;
18834;SDS011;9546;59.262;18.036;2022-09-03T12:32:04;1.17;;;0.43;;
18834;SDS011;9546;59.262;18.036;2022-09-03T12:34:32;0.45;;;0.40;;
18834;SDS011;9546;59.262;18.036;2022-09-03T12:36:58;1.95;;;0.65;;
18834;SDS011;9546;59.262;18.036;2022-09-03T12:39:26;1.00;;;0.68;;
18834;SDS011;9546;59.262;18.036;2022-09-03T12:41:54;1.00;;;0.90;;
18834;SDS011;9546;59.262;18.036;2022-09-03T12:44:23;0.60;;;0.60;;
18834;SDS011;9546;59.262;18.036;2022-09-03T12:47:00;1.00;;;0.50;;
18834;SDS011;9546;59.262;18.036;2022-09-03T12:49:32;0.80;;;0.60;;
18834;SDS011;9546;59.262;18.036;2022-09-03T12:52:00;1.23;;;0.70;;
18834;SDS011;9546;59.262;18.036;2022-09-03T12:54:28;0.80;;;0.70;;
18834;SDS011;9546;59.262;18.036;2022-09-03T12:56:55;1.15;;;0.80;;
18834;SDS011;9546;59.262;18.036;2022-09-03T12:59:23;2.15;;;0.70;;
18834;SDS011;9546;59.262;18.036;2022-09-03T13:01:53;1.05;;;0.60;;
18834;SDS011;9546;59.262;18.036;2022-09-03T13:04:22;0.65;;;0.52;;
18834;SDS011;9546;59.262;18.036;2022-09-03T13:06:53;0.57;;;0.43;;
18834;SDS011;9546;59.262;18.036;2022-09-03T13:29:21;0.70;;;0.50;;
18834;SDS011;9546;59.262;18.036;2022-09-03T13:31:52;1.13;;;0.70;;
18834;SDS011;9546;59.262;18.036;2022-09-03T13:34:21;0.90;;;0.60;;
18834;SDS011;9546;59.262;18.036;2022-09-03T13:36:53;0.60;;;0.60;;
18834;SDS011;9546;59.262;18.036;2022-09-03T13:39:24;1.05;;;0.70;;
18834;SDS011;9546;59.262;18.036;2022-09-03T13:41:53;1.08;;;0.50;;
18834;SDS011;9546;59.262;18.036;2022-09-03T13:44:26;2.05;;;0.63;;
18834;SDS011;9546;59.262;18.036;2022-09-03T13:47:08;1.60;;;0.80;;
18834;SDS011;9546;59.262;18.036;2022-09-03T13:49:38;0.65;;;0.65;;
18834;SDS011;9546;59.262;18.036;2022-09-03T13:52:23;2.88;;;0.73;;
18834;SDS011;9546;59.262;18.036;2022-09-03T13:54:55;1.10;;;0.50;;
18834;SDS011;9546;59.262;18.036;2022-09-03T13:57:29;1.35;;;0.70;;
18834;SDS011;9546;59.262;18.036;2022-09-03T14:00:03;0.85;;;0.60;;
18834;SDS011;9546;59.262;18.036;2022-09-03T14:02:36;2.67;;;0.70;;
18834;SDS011;9546;59.262;18.036;2022-09-03T14:05:14;0.43;;;0.43;;
18834;SDS011;9546;59.262;18.036;2022-09-03T14:07:44;1.02;;;0.60;;
18834;SDS011;9546;59.262;18.036;2022-09-03T14:10:21;0.52;;;0.50;;
18834;SDS011;9546;59.262;18.036;2022-09-03T14:12:48;1.42;;;0.80;;
18834;SDS011;9546;59.262;18.036;2022-09-03T14:15:23;1.92;;;0.52;;
18834;SDS011;9546;59.262;18.036;2022-09-03T14:17:55;0.65;;;0.65;;
18834;SDS011;9546;59.262;18.036;2022-09-03T14:20:27;1.35;;;0.90;;
18834;SDS011;9546;59.262;18.036;2022-09-03T14:23:17;0.65;;;0.52;;
18834;SDS011;9546;59.262;18.036;2022-09-03T14:25:51;0.68;;;0.55;;
18834;SDS011;9546;59.262;18.036;2022-09-03T14:28:27;1.42;;;0.60;;
18834;SDS011;9546;59.262;18.036;2022-09-03T14:31:01;1.08;;;0.52;;
18834;SDS011;9546;59.262;18.036;2022-09-03T14:33:38;1.05;;;0.63;;
18834;SDS011;9546;59.262;18.036;2022-09-03T14:36:09;1.60;;;0.60;;
18834;SDS011;9546;59.262;18.036;2022-09-03T14:41:32;1.45;;;0.77;;
18834;SDS011;9546;59.262;18.036;2022-09-03T14:44:16;0.30;;;0.30;;
18834;SDS011;9546;59.262;18.036;2022-09-03T14:52:31;1.60;;;0.60;;
18834;SDS011;9546;59.262;18.036;2022-09-03T14:55:12;0.60;;;0.50;;
18834;SDS011;9546;59.262;18.036;2022-09-03T14:57:44;2.25;;;0.70;;
18834;SDS011;9546;59.262;18.036;2022-09-03T15:00:23;0.80;;;0.60;;
18834;SDS011;9546;59.262;18.036;2022-09-03T15:31:11;1.35;;;0.60;;
18834;SDS011;9546;59.262;18.036;2022-09-03T15:33:42;2.05;;;0.70;;
18834;SDS011;9546;59.262;18.036;2022-09-03T15:36:15;2.22;;;1.02;;
18834;SDS011;9546;59.262;18.036;2022-09-03T15:38:46;0.70;;;0.60;;
18834;SDS011;9546;59.262;18.036;2022-09-03T15:41:18;0.75;;;0.50;;
18834;SDS011;9546;59.262;18.036;2022-09-03T15:43:48;3.88;;;0.73;;
18834;SDS011;9546;59.262;18.036;2022-09-03T15:46:36;3.03;;;2.40;;
18834;SDS011;9546;59.262;18.036;2022-09-03T15:49:05;0.95;;;0.70;;
18834;SDS011;9546;59.262;18.036;2022-09-03T15:51:40;4.15;;;0.68;;
18834;SDS011;9546;59.262;18.036;2022-09-03T15:54:09;1.05;;;0.60;;
18834;SDS011;9546;59.262;18.036;2022-09-03T15:56:40;1.35;;;1.25;;
18834;SDS011;9546;59.262;18.036;2022-09-03T15:59:11;1.00;;;0.60;;
18834;SDS011;9546;59.262;18.036;2022-09-03T16:01:44;1.08;;;0.80;;
18834;SDS011;9546;59.262;18.036;2022-09-03T16:04:21;0.80;;;0.65;;
18834;SDS011;9546;59.262;18.036;2022-09-03T16:06:53;1.00;;;0.70;;
18834;SDS011;9546;59.262;18.036;2022-09-03T16:09:23;1.30;;;0.60;;
18834;SDS011;9546;59.262;18.036;2022-09-03T16:11:54;0.95;;;0.68;;
18834;SDS011;9546;59.262;18.036;2022-09-03T16:14:24;1.35;;;0.88;;
18834;SDS011;9546;59.262;18.036;2022-09-03T16:16:58;1.40;;;0.80;;
18834;SDS011;9546;59.262;18.036;2022-09-03T16:19:27;0.80;;;0.63;;
18834;SDS011;9546;59.262;18.036;2022-09-03T16:21:58;0.90;;;0.60;;
18834;SDS011;9546;59.262;18.036;2022-09-03T16:24:31;2.72;;;0.80;;
18834;SDS011;9546;59.262;18.036;2022-09-03T16:27:02;1.60;;;0.98;;
18834;SDS011;9546;59.262;18.036;2022-09-03T16:29:31;1.27;;;0.65;;
18834;SDS011;9546;59.262;18.036;2022-09-03T16:32:19;2.25;;;0.90;;
18834;SDS011;9546;59.262;18.036;2022-09-03T16:34:50;1.55;;;0.60;;
18834;SDS011;9546;59.262;18.036;2022-09-03T16:37:23;1.65;;;0.70;;
18834;SDS011;9546;59.262;18.036;2022-09-03T16:39:54;1.13;;;0.80;;
18834;SDS011;9546;59.262;18.036;2022-09-03T16:42:25;1.92;;;0.65;;
18834;SDS011;9546;59.262;18.036;2022-09-03T16:44:57;2.85;;;1.45;;
18834;SDS011;9546;59.262;18.036;2022-09-03T16:52:57;1.67;;;0.75;;
18834;SDS011;9546;59.262;18.036;2022-09-03T16:55:29;13.13;;;9.45;;
18834;SDS011;9546;59.262;18.036;2022-09-03T16:57:58;1.10;;;1.00;;
18834;SDS011;9546;59.262;18.036;2022-09-03T17:00:36;1.48;;;1.10;;
18834;SDS011;9546;59.262;18.036;2022-09-03T17:03:10;1.52;;;0.82;;
18834;SDS011;9546;59.262;18.036;2022-09-03T17:05:58;0.75;;;0.70;;
18834;SDS011;9546;59.262;18.036;2022-09-03T17:28:45;1.13;;;0.90;;
18834;SDS011;9546;59.262;18.036;2022-09-03T17:31:18;1.45;;;0.85;;
18834;SDS011;9546;59.262;18.036;2022-09-03T17:33:54;1.20;;;0.93;;
18834;SDS011;9546;59.262;18.036;2022-09-03T17:36:24;2.88;;;1.38;;
18834;SDS011;9546;59.262;18.036;2022-09-03T17:39:02;2.15;;;0.88;;
18834;SDS011;9546;59.262;18.036;2022-09-03T17:41:39;2.10;;;1.83;;
18834;SDS011;9546;59.262;18.036;2022-09-03T17:44:26;1.63;;;1.40;;
18834;SDS011;9546;59.262;18.036;2022-09-03T17:47:01;2.15;;;1.15;;
18834;SDS011;9546;59.262;18.036;2022-09-03T17:49:33;1.98;;;1.00;;
18834;SDS011;9546;59.262;18.036;2022-09-03T17:52:04;1.10;;;1.00;;
18834;SDS011;9546;59.262;18.036;2022-09-03T17:54:39;2.22;;;1.40;;
18834;SDS011;9546;59.262;18.036;2022-09-03T17:57:10;2.35;;;1.65;;
18834;SDS011;9546;59.262;18.036;2022-09-03T17:59:41;1.60;;;1.40;;
18834;SDS011;9546;59.262;18.036;2022-09-03T18:02:15;3.03;;;1.10;;
18834;SDS011;9546;59.262;18.036;2022-09-03T18:04:45;2.95;;;1.42;;
18834;SDS011;9546;59.262;18.036;2022-09-03T18:07:17;3.45;;;1.38;;
18834;SDS011;9546;59.262;18.036;2022-09-03T18:09:49;1.13;;;1.02;;
18834;SDS011;9546;59.262;18.036;2022-09-03T18:12:25;1.85;;;1.13;;
18834;SDS011;9546;59.262;18.036;2022-09-03T18:15:02;1.60;;;1.45;;
18834;SDS011;9546;59.262;18.036;2022-09-03T18:17:32;1.40;;;1.30;;
18834;SDS011;9546;59.262;18.036;2022-09-03T18:20:02;4.30;;;1.67;;
18834;SDS011;9546;59.262;18.036;2022-09-03T18:22:47;2.85;;;1.20;;
18834;SDS011;9546;59.262;18.036;2022-09-03T18:25:34;3.13;;;1.92;;
18834;SDS011;9546;59.262;18.036;2022-09-03T18:28:18;2.03;;;1.25;;
18834;SDS011;9546;59.262;18.036;2022-09-03T18:31:08;2.47;;;1.45;;
18834;SDS011;9546;59.262;18.036;2022-09-03T18:33:54;1.88;;;1.50;;